Time;durP1;ratioP1;P1;durP2;ratioP2;P2;SDS_P1;SDS_P2;PMS_P1;PMS_P2;Temp;Humidity;BMP_temperature;BMP_pressure;BME280_temperature;BME280_humidity;BME280_pressure;Samples;Min_cycle;Max_cycle;Signal;HPM_P1;HPM_P2
2024/04/05 00:01:00;;;;;;;;;;;;;;;;;;107814;1244;62896;-81
2024/04/05 00:03:46;;;;;;;;;;;;;;;;;;107728;1245;62765;-80
2024/04/05 00:06:13;;;;;;;;;;;;;;;;;;107799;1250;62870;-81
2024/04/05 00:08:39;;;;;;;;;;;;;;;;;;107779;1250;63043;-80
2024/04/05 00:11:05;;;;;;;;;;;;;;;;;;107836;1249;61220;-80
2024/04/05 00:13:32;;;;;;;;;;;;;;;;;;107855;1250;62863;-81
2024/04/05 00:15:58;;;;;;;;;;;;;;;;;;107843;1251;62884;-80
2024/04/05 00:18:25;;;;;;;;;;;;;;;;;;107594;1246;62988;-81
2024/04/05 00:20:52;;;;;;;;;;;;;;;;;;107674;1247;62861;-81
2024/04/05 00:23:18;;;;;;;;;;;;;;;;;;107668;1250;62947;-80
2024/04/05 00:25:44;;;;;;;;;;;;;;;;;;107735;1249;62825;-80
2024/04/05 00:28:10;;;;;;;;;;;;;;;;;;107817;1245;64230;-80
2024/04/05 00:30:36;;;;;;;;;;;;;;;;;;107759;1245;62889;-80
2024/04/05 00:33:02;;;;;;;;;;;;;;;;;;107676;1250;60850;-80
2024/04/05 00:35:29;;;;;;;;;;;;;;;;;;107785;1245;63030;-81
2024/04/05 00:37:55;;;;;;;;;;;;;;;;;;107724;1249;62864;-80
2024/04/05 00:40:21;;;;;;;;;;;;;;;;;;107723;1245;63896;-80
2024/04/05 00:42:47;;;;;;;;;;;;;;;;;;107809;1250;62894;-81
2024/04/05 00:45:13;;;;;;;;;;;;;;;;;;107796;1250;63491;-81
2024/04/05 00:47:40;;;;;;;;;;;;;;;;;;107705;1244;64007;-80
2024/04/05 00:50:06;;;;;;;;;;;;;;;;;;107811;1244;62873;-81
2024/04/05 00:52:32;;;;;;;;;;;;;;;;;;107778;1247;60883;-80
2024/04/05 00:54:58;;;;;;;;;;;;;;;;;;107792;1250;62953;-81
2024/04/05 00:57:24;;;;;;;;;;;;;;;;;;107754;1253;63802;-81
2024/04/05 00:59:51;;;;;;;;;;;;;;;;;;107758;1245;62883;-81
2024/04/05 01:02:17;;;;;;;;;;;;;;;;;;107757;1245;62944;-80
2024/04/05 01:04:43;;;;;;;;;;;;;;;;;;107778;1250;62960;-81
2024/04/05 01:07:09;;;;;;;;;;;;;;;;;;107761;1245;62837;-81
2024/04/05 01:09:35;;;;;;;;;;;;;;;;;;107731;1248;60940;-81
2024/04/05 01:12:02;;;;;;;;;;;;;;;;;;107777;1250;62833;-81
2024/04/05 01:14:28;;;;;;;;;;;;;;;;;;107845;1249;63909;-80
2024/04/05 01:16:54;;;;;;;;;;;;;;;;;;107730;1244;62732;-81
2024/04/05 01:19:20;;;;;;;;;;;;;;;;;;109155;1244;62685;-81
2024/04/05 01:21:46;;;;;;;;;;;;;;;;;;110244;1245;60517;-81
2024/04/05 01:24:12;;;;;;;;;;;;;;;;;;108377;1245;62829;-81
2024/04/05 01:26:39;;;;;;;;;;;;;;;;;;107738;1244;62938;-81
2024/04/05 01:29:05;;;;;;;;;;;;;;;;;;107753;1250;62936;-81
2024/04/05 01:31:31;;;;;;;;;;;;;;;;;;107811;1245;62925;-80
2024/04/05 01:33:58;;;;;;;;;;;;;;;;;;107731;1245;62868;-81
2024/04/05 01:36:24;;;;;;;;;;;;;;;;;;107727;1245;62899;-81
2024/04/05 01:38:50;;;;;;;;;;;;;;;;;;107732;1244;62944;-81
2024/04/05 01:41:16;;;;;;;;;;;;;;;;;;107669;1249;62893;-80
2024/04/05 01:43:42;;;;;;;;;;;;;;;;;;107650;1244;62822;-81
2024/04/05 01:46:09;;;;;;;;;;;;;;;;;;107702;1249;62927;-81
2024/04/05 01:48:35;;;;;;;;;;;;;;;;;;107698;1245;62921;-81
2024/04/05 01:51:01;;;;;;;;;;;;;;;;;;107760;1244;62392;-80
2024/04/05 01:53:27;;;;;;;;;;;;;;;;;;107712;1248;62950;-82
2024/04/05 01:55:54;;;;;;;;;;;;;;;;;;107672;1250;62899;-80
2024/04/05 01:58:20;;;;;;;;;;;;;;;;;;107689;1249;62844;-81
2024/04/05 02:00:46;;;;;;;;;;;;;;;;;;107736;1250;62822;-81
2024/04/05 02:03:12;;;;;;;;;;;;;;;;;;107736;1250;62808;-81
2024/04/05 02:05:38;;;;;;;;;;;;;;;;;;107778;1244;62893;-80
2024/04/05 02:08:04;;;;;;;;;;;;;;;;;;109538;1244;60781;-81
2024/04/05 02:10:31;;;;;;;;;;;;;;;;;;109516;1248;62843;-80
2024/04/05 02:12:57;;;;;;;;;;;;;;;;;;107771;1246;62810;-80
2024/04/05 02:15:23;;;;;;;;;;;;;;;;;;107672;1247;63036;-80
2024/04/05 02:17:49;;;;;;;;;;;;;;;;;;107716;1244;62795;-80
2024/04/05 02:20:15;;;;;;;;;;;;;;;;;;107802;1244;63056;-80
2024/04/05 02:22:41;;;;;;;;;;;;;;;;;;107791;1245;62967;-81
2024/04/05 02:25:08;;;;;;;;;;;;;;;;;;107783;1245;62781;-81
2024/04/05 02:27:34;;;;;;;;;;;;;;;;;;107745;1250;62864;-81
2024/04/05 02:30:00;;;;;;;;;;;;;;;;;;107834;1244;62867;-80
2024/04/05 02:32:27;;;;;;;;;;;;;;;;;;107777;1245;62710;-80
2024/04/05 02:34:53;;;;;;;;;;;;;;;;;;107736;1244;62948;-81
2024/04/05 02:37:19;;;;;;;;;;;;;;;;;;107832;1250;62873;-81
2024/04/05 02:39:45;;;;;;;;;;;;;;;;;;107786;1250;62945;-81
2024/04/05 02:42:11;;;;;;;;;;;;;;;;;;107815;1244;62854;-81
2024/04/05 02:44:37;;;;;;;;;;;;;;;;;;107732;1249;63921;-80
2024/04/05 02:47:04;;;;;;;;;;;;;;;;;;107755;1244;63523;-81
2024/04/05 02:49:30;;;;;;;;;;;;;;;;;;107841;1244;62946;-81
2024/04/05 02:51:56;;;;;;;;;;;;;;;;;;107837;1245;62758;-80
2024/04/05 02:54:22;;;;;;;;;;;;;;;;;;107666;1250;62935;-81
2024/04/05 02:56:48;;;;;;;;;;;;;;;;;;107703;1244;62875;-80
2024/04/05 02:59:14;;;;;;;;;;;;;;;;;;107734;1250;62931;-81
2024/04/05 03:01:41;;;;;;;;;;;;;;;;;;107702;1250;62778;-81
2024/04/05 03:04:07;;;;;;;;;;;;;;;;;;107737;1244;62838;-81
2024/04/05 03:06:33;;;;;;;;;;;;;;;;;;107800;1244;62944;-81
2024/04/05 03:08:59;;;;;;;;;;;;;;;;;;107740;1244;62739;-82
2024/04/05 03:11:26;;;;;;;;;;;;;;;;;;107773;1244;63335;-81
2024/04/05 03:13:52;;;;;;;;;;;;;;;;;;107786;1250;62971;-81
2024/04/05 03:16:18;;;;;;;;;;;;;;;;;;107736;1249;62931;-80
2024/04/05 03:18:44;;;;;;;;;;;;;;;;;;107815;1244;62863;-81
2024/04/05 03:21:10;;;;;;;;;;;;;;;;;;107723;1244;62928;-81
2024/04/05 03:23:36;;;;;;;;;;;;;;;;;;107789;1249;62960;-80
2024/04/05 03:26:03;;;;;;;;;;;;;;;;;;107817;1244;62860;-80
2024/04/05 03:28:29;;;;;;;;;;;;;;;;;;107710;1250;62924;-80
2024/04/05 03:30:55;;;;;;;;;;;;;;;;;;107793;1244;62889;-80
2024/04/05 03:33:21;;;;;;;;;;;;;;;;;;107843;1244;62953;-83
2024/04/05 03:35:47;;;;;;;;;;;;;;;;;;107729;1244;62915;-81
2024/04/05 03:38:14;;;;;;;;;;;;;;;;;;107704;1244;62823;-82
2024/04/05 03:40:40;;;;;;;;;;;;;;;;;;107763;1244;62947;-80
2024/04/05 03:43:06;;;;;;;;;;;;;;;;;;107771;1245;62914;-80
2024/04/05 03:45:32;;;;;;;;;;;;;;;;;;107836;1244;62795;-81
2024/04/05 03:47:58;;;;;;;;;;;;;;;;;;107956;1251;61075;-82
2024/04/05 03:50:25;;;;;;;;;;;;;;;;;;107748;1250;62941;-82
2024/04/05 03:52:51;;;;;;;;;;;;;;;;;;107712;1244;62957;-81
2024/04/05 03:55:18;;;;;;;;;;;;;;;;;;108497;1244;62755;-81
2024/04/05 03:57:44;;;;;;;;;;;;;;;;;;109855;1244;62841;-80
2024/04/05 04:00:10;;;;;;;;;;;;;;;;;;107764;1244;62970;-80
2024/04/05 04:02:36;;;;;;;;;;;;;;;;;;107792;1249;62848;-80
2024/04/05 04:05:02;;;;;;;;;;;;;;;;;;108575;1244;62969;-81
2024/04/05 04:07:29;;;;;;;;;;;;;;;;;;110235;1244;60539;-80
2024/04/05 04:09:55;;;;;;;;;;;;;;;;;;110188;1244;60634;-81
2024/04/05 04:12:22;;;;;;;;;;;;;;;;;;110225;1244;60476;-80
2024/04/05 04:14:49;;;;;;;;;;;;;;;;;;110221;1244;60622;-81
2024/04/05 04:17:15;;;;;;;;;;;;;;;;;;110210;1244;60462;-80
2024/04/05 04:19:41;;;;;;;;;;;;;;;;;;110167;1247;60745;-80
2024/04/05 04:22:09;;;;;;;;;;;;;;;;;;109509;1246;62954;-81
2024/04/05 04:24:35;;;;;;;;;;;;;;;;;;107785;1244;62947;-80
2024/04/05 04:27:02;;;;;;;;;;;;;;;;;;107745;1244;62969;-80
2024/04/05 04:29:30;;;;;;;;;;;;;;;;;;107827;1249;62938;-81
2024/04/05 04:31:57;;;;;;;;;;;;;;;;;;107769;1249;64299;-81
2024/04/05 04:34:23;;;;;;;;;;;;;;;;;;107786;1244;62858;-80
2024/04/05 04:36:49;;;;;;;;;;;;;;;;;;107807;1245;62919;-80
2024/04/05 04:39:16;;;;;;;;;;;;;;;;;;107703;1249;62842;-80
2024/04/05 04:41:43;;;;;;;;;;;;;;;;;;107783;1247;62944;-81
2024/04/05 04:44:09;;;;;;;;;;;;;;;;;;107824;1249;62880;-81
2024/04/05 04:46:36;;;;;;;;;;;;;;;;;;107830;1244;62892;-80
2024/04/05 04:49:02;;;;;;;;;;;;;;;;;;107777;1246;62870;-81
2024/04/05 04:51:28;;;;;;;;;;;;;;;;;;107847;1249;63418;-81
2024/04/05 04:53:54;;;;;;;;;;;;;;;;;;107779;1244;62860;-81
2024/04/05 04:56:20;;;;;;;;;;;;;;;;;;107949;1250;64164;-80
2024/04/05 04:58:47;;;;;;;;;;;;;;;;;;107902;1244;62867;-82
2024/04/05 05:01:15;;;;;;;;;;;;;;;;;;107939;1244;62803;-80
2024/04/05 05:03:41;;;;;;;;;;;;;;;;;;107869;1244;62935;-82
2024/04/05 05:06:08;;;;;;;;;;;;;;;;;;108118;1248;63373;-80
2024/04/05 05:08:34;;;;;;;;;;;;;;;;;;108014;1245;62839;-80
2024/04/05 05:11:00;;;;;;;;;;;;;;;;;;107818;1245;62947;-82
2024/04/05 05:13:26;;;;;;;;;;;;;;;;;;107896;1249;62755;-81
2024/04/05 05:15:52;;;;;;;;;;;;;;;;;;107761;1244;62952;-80
2024/04/05 05:18:18;;;;;;;;;;;;;;;;;;107825;1244;62911;-80
2024/04/05 05:20:44;;;;;;;;;;;;;;;;;;107793;1249;62957;-82
2024/04/05 05:23:11;;;;;;;;;;;;;;;;;;107862;1249;62888;-82
2024/04/05 05:25:37;;;;;;;;;;;;;;;;;;107898;1246;62886;-81
2024/04/05 05:28:04;;;;;;;;;;;;;;;;;;107804;1246;62952;-82
2024/04/05 05:30:30;;;;;;;;;;;;;;;;;;107835;1244;62957;-81
2024/04/05 05:32:56;;;;;;;;;;;;;;;;;;107769;1244;62864;-81
2024/04/05 05:35:23;;;;;;;;;;;;;;;;;;107872;1249;64028;-82
2024/04/05 05:37:49;;;;;;;;;;;;;;;;;;108119;1244;62938;-83
2024/04/05 05:40:15;;;;;;;;;;;;;;;;;;109054;1244;62931;-81
2024/04/05 05:42:41;;;;;;;;;;;;;;;;;;108654;1245;62883;-81
2024/04/05 05:45:07;;;;;;;;;;;;;;;;;;108232;1247;62896;-81
2024/04/05 05:47:34;;;;;;;;;;;;;;;;;;107829;1246;62930;-79
2024/04/05 05:50:00;;;;;;;;;;;;;;;;;;107786;1250;63039;-80
2024/04/05 05:52:26;;;;;;;;;;;;;;;;;;107769;1244;62944;-80
2024/04/05 05:54:52;;;;;;;;;;;;;;;;;;107775;1249;63848;-82
2024/04/05 05:57:19;;;;;;;;;;;;;;;;;;107817;1249;62902;-80
2024/04/05 05:59:45;;;;;;;;;;;;;;;;;;107878;1247;62949;-80
2024/04/05 06:02:11;;;;;;;;;;;;;;;;;;107978;1246;62860;-80
2024/04/05 06:04:40;;;;;;;;;;;;;;;;;;108068;1246;62740;-80
2024/04/05 06:07:06;;;;;;;;;;;;;;;;;;107902;1244;64484;-81
2024/04/05 06:09:32;;;;;;;;;;;;;;;;;;107782;1249;218526;-80
2024/04/05 06:12:00;;;;;;;;;;;;;;;;;;108202;1244;62985;-81
2024/04/05 06:14:29;;;;;;;;;;;;;;;;;;108104;1249;62752;-81
2024/04/05 06:16:57;;;;;;;;;;;;;;;;;;108019;1244;62700;-80
2024/04/05 06:19:24;;;;;;;;;;;;;;;;;;107998;1245;63624;-81
2024/04/05 06:21:50;;;;;;;;;;;;;;;;;;108137;1244;62483;-81
2024/04/05 06:24:16;;;;;;;;;;;;;;;;;;107902;1244;62891;-81
2024/04/05 06:26:42;;;;;;;;;;;;;;;;;;107950;1244;62933;-81
2024/04/05 06:29:09;;;;;;;;;;;;;;;;;;108040;1245;62939;-81
2024/04/05 06:31:35;;;;;;;;;;;;;;;;;;108141;1244;62965;-80
2024/04/05 06:34:01;;;;;;;;;;;;;;;;;;108005;1247;63378;-81
2024/04/05 06:36:28;;;;;;;;;;;;;;;;;;107940;1244;62855;-80
2024/04/05 06:38:54;;;;;;;;;;;;;;;;;;107934;1244;62962;-80
2024/04/05 06:41:20;;;;;;;;;;;;;;;;;;108259;1244;62959;-81
2024/04/05 06:43:47;;;;;;;;;;;;;;;;;;108051;1244;62911;-81
2024/04/05 06:46:14;;;;;;;;;;;;;;;;;;107949;1244;62830;-81
2024/04/05 06:48:40;;;;;;;;;;;;;;;;;;108082;1244;63034;-81
2024/04/05 06:51:06;;;;;;;;;;;;;;;;;;108136;1244;61167;-80
2024/04/05 06:53:33;;;;;;;;;;;;;;;;;;108129;1244;62944;-82
2024/04/05 06:55:59;;;;;;;;;;;;;;;;;;108022;1244;62960;-80
2024/04/05 06:58:25;;;;;;;;;;;;;;;;;;108081;1250;63015;-82
2024/04/05 07:00:51;;;;;;;;;;;;;;;;;;108235;1245;62739;-80
2024/04/05 07:03:19;;;;;;;;;;;;;;;;;;108040;1245;62855;-81
2024/04/05 07:05:45;;;;;;;;;;;;;;;;;;108027;1244;62897;-81
2024/04/05 07:08:11;;;;;;;;;;;;;;;;;;108131;1246;64723;-81
2024/04/05 07:10:37;;;;;;;;;;;;;;;;;;108206;1249;62851;-80
2024/04/05 07:13:04;;;;;;;;;;;;;;;;;;108338;1247;62892;-80
2024/04/05 07:15:30;;;;;;;;;;;;;;;;;;108192;1244;62729;-80
2024/04/05 07:17:56;;;;;;;;;;;;;;;;;;108362;1249;62858;-80
2024/04/05 07:20:24;;;;;;;;;;;;;;;;;;108121;1244;62937;-80
2024/04/05 07:22:52;;;;;;;;;;;;;;;;;;108048;1249;62716;-80
2024/04/05 07:25:18;;;;;;;;;;;;;;;;;;108861;1244;62781;-82
2024/04/05 07:27:48;;;;;;;;;;;;;;;;;;110196;1244;60509;-81
2024/04/05 07:30:14;;;;;;;;;;;;;;;;;;110180;1244;63517;-81
2024/04/05 07:32:41;;;;;;;;;;;;;;;;;;110203;1246;60457;-81
2024/04/05 07:35:07;;;;;;;;;;;;;;;;;;110112;1245;60941;-82
2024/04/05 07:37:34;;;;;;;;;;;;;;;;;;110163;1244;60562;-80
2024/04/05 07:40:00;;;;;;;;;;;;;;;;;;110213;1244;60860;-81
2024/04/05 07:42:27;;;;;;;;;;;;;;;;;;110152;1244;60863;-80
2024/04/05 07:44:58;;;;;;;;;;;;;;;;;;110184;1244;60634;-81
2024/04/05 07:47:24;;;;;;;;;;;;;;;;;;110012;1244;60807;-81
2024/04/05 07:49:50;;;;;;;;;;;;;;;;;;110101;1244;60420;-80
2024/04/05 07:52:16;;;;;;;;;;;;;;;;;;110190;1244;60670;-81
2024/04/05 07:54:43;;;;;;;;;;;;;;;;;;110048;1244;60969;-81
2024/04/05 07:57:09;;;;;;;;;;;;;;;;;;108011;1245;62952;-82
2024/04/05 07:59:36;;;;;;;;;;;;;;;;;;108049;1244;62976;-81
2024/04/05 08:02:03;;;;;;;;;;;;;;;;;;108170;1244;62930;-81
2024/04/05 08:04:29;;;;;;;;;;;;;;;;;;108007;1244;62920;-81
2024/04/05 08:06:57;;;;;;;;;;;;;;;;;;108112;1244;62851;-80
2024/04/05 08:09:24;;;;;;;;;;;;;;;;;;107832;1244;62749;-81
2024/04/05 08:11:50;;;;;;;;;;;;;;;;;;108156;1248;62934;-80
2024/04/05 08:14:16;;;;;;;;;;;;;;;;;;107967;1246;62815;-81
2024/04/05 08:16:42;;;;;;;;;;;;;;;;;;107939;1244;63034;-81
2024/04/05 08:19:08;;;;;;;;;;;;;;;;;;107907;1244;62746;-81
2024/04/05 08:21:34;;;;;;;;;;;;;;;;;;108159;1246;62776;-81
2024/04/05 08:24:01;;;;;;;;;;;;;;;;;;108092;1247;63783;-82
2024/04/05 08:26:27;;;;;;;;;;;;;;;;;;108033;1244;62963;-82
2024/04/05 08:28:53;;;;;;;;;;;;;;;;;;108176;1244;62880;-81
2024/04/05 08:31:19;;;;;;;;;;;;;;;;;;108206;1246;62841;-82
2024/04/05 08:33:46;;;;;;;;;;;;;;;;;;108101;1247;63405;-81
2024/04/05 08:36:12;;;;;;;;;;;;;;;;;;108076;1244;63308;-82
2024/04/05 08:38:38;;;;;;;;;;;;;;;;;;107987;1244;62863;-82
2024/04/05 08:41:04;;;;;;;;;;;;;;;;;;108208;1244;62258;-81
2024/04/05 08:43:31;;;;;;;;;;;;;;;;;;108073;1247;62836;-81
2024/04/05 08:45:57;;;;;;;;;;;;;;;;;;107788;1244;62828;-82
2024/04/05 08:48:23;;;;;;;;;;;;;;;;;;108051;1244;60905;-83
2024/04/05 08:50:49;;;;;;;;;;;;;;;;;;109566;1244;62261;-82
2024/04/05 08:53:16;;;;;;;;;;;;;;;;;;110169;1244;60548;-82
2024/04/05 08:55:43;;;;;;;;;;;;;;;;;;110129;1244;60507;-82
2024/04/05 08:58:09;;;;;;;;;;;;;;;;;;110216;1244;60777;-82
2024/04/05 09:00:35;;;;;;;;;;;;;;;;;;110118;1244;60817;-83
2024/04/05 09:03:02;;;;;;;;;;;;;;;;;;110146;1243;60519;-82
2024/04/05 09:05:28;;;;;;;;;;;;;;;;;;109557;1244;62851;-82
2024/04/05 09:07:54;;;;;;;;;;;;;;;;;;108020;1246;62886;-82
2024/04/05 09:10:20;;;;;;;;;;;;;;;;;;108003;1245;62845;-82
2024/04/05 09:12:47;;;;;;;;;;;;;;;;;;108097;1249;62899;-82
2024/04/05 09:15:14;;;;;;;;;;;;;;;;;;108073;1244;62976;-82
2024/04/05 09:17:40;;;;;;;;;;;;;;;;;;108150;1249;62948;-83
2024/04/05 09:20:08;;;;;;;;;;;;;;;;;;107948;1244;62726;-82
2024/04/05 09:22:34;;;;;;;;;;;;;;;;;;108057;1247;62956;-81
2024/04/05 09:25:00;;;;;;;;;;;;;;;;;;108141;1244;62797;-81
2024/04/05 09:27:27;;;;;;;;;;;;;;;;;;108566;1245;63301;-81
2024/04/05 09:29:53;;;;;;;;;;;;;;;;;;108304;1245;63012;-82
2024/04/05 09:32:20;;;;;;;;;;;;;;;;;;108224;1245;62908;-81
2024/04/05 09:34:46;;;;;;;;;;;;;;;;;;107727;1244;62964;-81
2024/04/05 09:37:13;;;;;;;;;;;;;;;;;;107948;1249;63037;-82
2024/04/05 09:39:39;;;;;;;;;;;;;;;;;;107991;1245;63970;-81
2024/04/05 09:42:05;;;;;;;;;;;;;;;;;;108046;1247;63688;-81
2024/04/05 09:44:31;;;;;;;;;;;;;;;;;;108023;1244;62874;-81
2024/04/05 09:46:57;;;;;;;;;;;;;;;;;;107717;1249;62898;-81
2024/04/05 09:49:24;;;;;;;;;;;;;;;;;;107778;1249;62874;-81
2024/04/05 09:51:51;;;;;;;;;;;;;;;;;;107867;1250;62886;-82
2024/04/05 09:54:17;;;;;;;;;;;;;;;;;;107745;1249;62841;-80
2024/04/05 09:56:43;;;;;;;;;;;;;;;;;;107771;1245;62867;-81
2024/04/05 09:59:10;;;;;;;;;;;;;;;;;;107549;1249;62877;-80
2024/04/05 10:01:36;;;;;;;;;;;;;;;;;;107933;1249;63000;-81
2024/04/05 10:04:03;;;;;;;;;;;;;;;;;;107718;1246;62945;-81
2024/04/05 10:06:29;;;;;;;;;;;;;;;;;;107609;1249;62854;-82
2024/04/05 10:08:55;;;;;;;;;;;;;;;;;;108220;1249;60872;-80
2024/04/05 10:11:21;;;;;;;;;;;;;;;;;;107669;1249;62928;-80
2024/04/05 10:13:48;;;;;;;;;;;;;;;;;;107744;1249;62778;-81
2024/04/05 10:16:14;;;;;;;;;;;;;;;;;;107617;1244;62933;-81
2024/04/05 10:18:42;;;;;;;;;;;;;;;;;;107590;1246;62884;-80
2024/04/05 10:21:08;;;;;;;;;;;;;;;;;;107706;1246;62887;-81
2024/04/05 10:23:34;;;;;;;;;;;;;;;;;;107692;1246;62874;-81
2024/04/05 10:26:01;;;;;;;;;;;;;;;;;;107500;1251;62891;-80
2024/04/05 10:28:30;;;;;;;;;;;;;;;;;;107583;1249;63036;-82
2024/04/05 10:30:57;;;;;;;;;;;;;;;;;;107668;1244;62752;-81
2024/04/05 10:33:23;;;;;;;;;;;;;;;;;;107749;1246;62933;-81
2024/04/05 10:35:49;;;;;;;;;;;;;;;;;;107720;1244;62804;-80
2024/04/05 10:38:16;;;;;;;;;;;;;;;;;;107749;1246;62937;-81
2024/04/05 10:40:42;;;;;;;;;;;;;;;;;;107871;1249;61152;-80
2024/04/05 10:43:09;;;;;;;;;;;;;;;;;;107638;1249;62847;-81
2024/04/05 10:45:35;;;;;;;;;;;;;;;;;;107804;1249;63624;-80
2024/04/05 10:48:01;;;;;;;;;;;;;;;;;;107680;1246;63232;-81
2024/04/05 10:50:28;;;;;;;;;;;;;;;;;;107801;1246;62875;-82
2024/04/05 10:52:54;;;;;;;;;;;;;;;;;;107610;1246;62883;-82
2024/04/05 10:55:21;;;;;;;;;;;;;;;;;;107688;1246;64845;-82
2024/04/05 10:57:47;;;;;;;;;;;;;;;;;;107585;1244;62887;-81
2024/04/05 11:00:13;;;;;;;;;;;;;;;;;;107794;1244;61295;-81
2024/04/05 11:02:40;;;;;;;;;;;;;;;;;;107857;1244;62796;-81
2024/04/05 11:05:06;;;;;;;;;;;;;;;;;;107830;1244;62913;-80
2024/04/05 11:07:33;;;;;;;;;;;;;;;;;;107731;1245;62860;-81
2024/04/05 11:09:59;;;;;;;;;;;;;;;;;;107780;1249;62857;-80
2024/04/05 11:12:25;;;;;;;;;;;;;;;;;;108020;1250;63991;-80
2024/04/05 11:14:51;;;;;;;;;;;;;;;;;;107826;1244;62854;-80
2024/04/05 11:17:17;;;;;;;;;;;;;;;;;;107802;1244;62934;-81
2024/04/05 11:19:44;;;;;;;;;;;;;;;;;;107751;1249;62869;-81
2024/04/05 11:22:10;;;;;;;;;;;;;;;;;;107615;1244;62952;-81
2024/04/05 11:24:36;;;;;;;;;;;;;;;;;;107779;1250;62833;-81
2024/04/05 11:27:02;;;;;;;;;;;;;;;;;;107704;1248;63213;-81
2024/04/05 11:29:28;;;;;;;;;;;;;;;;;;107761;1244;62869;-81
2024/04/05 11:31:55;;;;;;;;;;;;;;;;;;107771;1250;62925;-81
2024/04/05 11:34:21;;;;;;;;;;;;;;;;;;107737;1244;62835;-81
2024/04/05 11:36:47;;;;;;;;;;;;;;;;;;107730;1244;61064;-81
2024/04/05 11:39:14;;;;;;;;;;;;;;;;;;107779;1250;62873;-80
2024/04/05 11:41:40;;;;;;;;;;;;;;;;;;107897;1244;63317;-81
2024/04/05 11:44:07;;;;;;;;;;;;;;;;;;107784;1249;62825;-80
2024/04/05 11:46:33;;;;;;;;;;;;;;;;;;107693;1245;62942;-81
2024/04/05 11:48:59;;;;;;;;;;;;;;;;;;108060;1245;62959;-81
2024/04/05 11:51:25;;;;;;;;;;;;;;;;;;107830;1244;62818;-81
2024/04/05 11:53:52;;;;;;;;;;;;;;;;;;107587;1248;62940;-80
2024/04/05 11:56:18;;;;;;;;;;;;;;;;;;107634;1249;62943;-81
2024/04/05 11:58:44;;;;;;;;;;;;;;;;;;107506;1246;62882;-80
2024/04/05 12:01:12;;;;;;;;;;;;;;;;;;108444;1249;62906;-80
2024/04/05 12:03:39;;;;;;;;;;;;;;;;;;108669;1248;62935;-80
2024/04/05 12:06:05;;;;;;;;;;;;;;;;;;108702;1249;62719;-81
2024/04/05 12:08:31;;;;;;;;;;;;;;;;;;108577;1244;63039;-81
2024/04/05 12:10:57;;;;;;;;;;;;;;;;;;108363;1249;62820;-82
2024/04/05 12:13:23;;;;;;;;;;;;;;;;;;107724;1245;62874;-82
2024/04/05 12:15:50;;;;;;;;;;;;;;;;;;107724;1244;62958;-81
2024/04/05 12:18:16;;;;;;;;;;;;;;;;;;107582;1245;62950;-81
2024/04/05 12:20:43;;;;;;;;;;;;;;;;;;107749;1243;62846;-82
2024/04/05 12:23:09;;;;;;;;;;;;;;;;;;107700;1247;63283;-81
2024/04/05 12:25:36;;;;;;;;;;;;;;;;;;107773;1245;62966;-81
2024/04/05 12:28:02;;;;;;;;;;;;;;;;;;107718;1247;63017;-82
2024/04/05 12:30:29;;;;;;;;;;;;;;;;;;107671;1247;62876;-83
2024/04/05 12:32:55;;;;;;;;;;;;;;;;;;107567;1249;60829;-79
2024/04/05 12:35:23;;;;;;;;;;;;;;;;;;107593;1246;62933;-82
2024/04/05 12:37:54;;;;;;;;;;;;;;;;;;108070;1247;63208;-82
2024/04/05 12:40:28;;;;;;;;;;;;;;;;;;107712;1247;62866;-79
2024/04/05 12:42:54;;;;;;;;;;;;;;;;;;107688;1246;62817;-80
2024/04/05 12:45:20;;;;;;;;;;;;;;;;;;107657;1248;62930;-80
2024/04/05 12:47:46;;;;;;;;;;;;;;;;;;107827;1248;63600;-80
2024/04/05 12:50:13;;;;;;;;;;;;;;;;;;107741;1247;62874;-81
2024/04/05 12:52:39;;;;;;;;;;;;;;;;;;107796;1247;62944;-81
2024/04/05 12:55:05;;;;;;;;;;;;;;;;;;107743;1247;62938;-81
2024/04/05 12:57:32;;;;;;;;;;;;;;;;;;107572;1246;62825;-81
2024/04/05 12:59:59;;;;;;;;;;;;;;;;;;107578;1247;62922;-81
2024/04/05 13:02:25;;;;;;;;;;;;;;;;;;107718;1249;62800;-80
2024/04/05 13:04:51;;;;;;;;;;;;;;;;;;107588;1249;62832;-81
2024/04/05 13:07:18;;;;;;;;;;;;;;;;;;107649;1246;62772;-81
2024/04/05 13:09:44;;;;;;;;;;;;;;;;;;107525;1245;62874;-80
2024/04/05 13:12:10;;;;;;;;;;;;;;;;;;107727;1249;62886;-81
2024/04/05 13:14:36;;;;;;;;;;;;;;;;;;107792;1244;62874;-81
2024/04/05 13:17:02;;;;;;;;;;;;;;;;;;107705;1249;62901;-80
2024/04/05 13:19:28;;;;;;;;;;;;;;;;;;107544;1249;62919;-81
2024/04/05 13:21:55;;;;;;;;;;;;;;;;;;107750;1249;62755;-81
2024/04/05 13:24:21;;;;;;;;;;;;;;;;;;107970;1249;62857;-80
2024/04/05 13:26:47;;;;;;;;;;;;;;;;;;108122;1247;61041;-80
2024/04/05 13:29:13;;;;;;;;;;;;;;;;;;108193;1249;62816;-80
2024/04/05 13:31:39;;;;;;;;;;;;;;;;;;108178;1249;61756;-81
2024/04/05 13:34:06;;;;;;;;;;;;;;;;;;107766;1245;60837;-80
2024/04/05 13:36:33;;;;;;;;;;;;;;;;;;107654;1245;63851;-80
2024/04/05 13:38:59;;;;;;;;;;;;;;;;;;107715;1244;62994;-80
2024/04/05 13:41:25;;;;;;;;;;;;;;;;;;108183;1247;62945;-80
2024/04/05 13:43:52;;;;;;;;;;;;;;;;;;107748;1249;62806;-80
2024/04/05 13:46:18;;;;;;;;;;;;;;;;;;107815;1244;62871;-80
2024/04/05 13:48:45;;;;;;;;;;;;;;;;;;107901;1247;62745;-80
2024/04/05 13:51:11;;;;;;;;;;;;;;;;;;107638;1250;62949;-80
2024/04/05 13:53:37;;;;;;;;;;;;;;;;;;107821;1245;63021;-80
2024/04/05 13:56:07;;;;;;;;;;;;;;;;;;107898;1247;61513;-80
2024/04/05 13:58:33;;;;;;;;;;;;;;;;;;107889;1249;62777;-80
2024/04/05 14:01:00;;;;;;;;;;;;;;;;;;108014;1246;62835;-81
2024/04/05 14:03:26;;;;;;;;;;;;;;;;;;107855;1247;62895;-81
2024/04/05 14:05:52;;;;;;;;;;;;;;;;;;107853;1244;65055;-80
2024/04/05 14:08:18;;;;;;;;;;;;;;;;;;107804;1247;62921;-80
2024/04/05 14:10:46;;;;;;;;;;;;;;;;;;108151;1249;62942;-80
2024/04/05 14:13:12;;;;;;;;;;;;;;;;;;107882;1246;61539;-80
2024/04/05 14:15:39;;;;;;;;;;;;;;;;;;107676;1249;62920;-81
2024/04/05 14:18:08;;;;;;;;;;;;;;;;;;107495;1249;62935;-80
2024/04/05 14:20:34;;;;;;;;;;;;;;;;;;107533;1245;62899;-80
2024/04/05 14:23:00;;;;;;;;;;;;;;;;;;107492;1247;62882;-80
2024/04/05 14:25:27;;;;;;;;;;;;;;;;;;107665;1247;62837;-81
2024/04/05 14:27:55;;;;;;;;;;;;;;;;;;107629;1247;62853;-80
2024/04/05 14:30:21;;;;;;;;;;;;;;;;;;107604;1244;62977;-80
2024/04/05 14:32:48;;;;;;;;;;;;;;;;;;107496;1247;63019;-80
2024/04/05 14:35:14;;;;;;;;;;;;;;;;;;107575;1248;62616;-81
2024/04/05 14:37:41;;;;;;;;;;;;;;;;;;107627;1245;62855;-81
2024/04/05 14:40:07;;;;;;;;;;;;;;;;;;107750;1247;62870;-80
2024/04/05 14:42:33;;;;;;;;;;;;;;;;;;108190;1249;62889;-80
2024/04/05 14:44:59;;;;;;;;;;;;;;;;;;107514;1249;62915;-80
2024/04/05 14:47:26;;;;;;;;;;;;;;;;;;107813;1249;62954;-80
2024/04/05 14:49:52;;;;;;;;;;;;;;;;;;107753;1247;62927;-81
2024/04/05 14:52:18;;;;;;;;;;;;;;;;;;107733;1244;62910;-80
2024/04/05 14:54:44;;;;;;;;;;;;;;;;;;107844;1245;63327;-81
2024/04/05 14:57:10;;;;;;;;;;;;;;;;;;107603;1247;62892;-80
2024/04/05 14:59:37;;;;;;;;;;;;;;;;;;107601;1244;62749;-80
2024/04/05 15:02:03;;;;;;;;;;;;;;;;;;107712;1249;62882;-80
2024/04/05 15:04:35;;;;;;;;;;;;;;;;;;107829;1247;62902;-80
2024/04/05 15:07:04;;;;;;;;;;;;;;;;;;107502;1250;62908;-81
2024/04/05 15:09:30;;;;;;;;;;;;;;;;;;107504;1250;62934;-81
2024/04/05 15:11:57;;;;;;;;;;;;;;;;;;107445;1247;62915;-80
2024/04/05 15:14:23;;;;;;;;;;;;;;;;;;107503;1250;62842;-81
2024/04/05 15:16:49;;;;;;;;;;;;;;;;;;107442;1249;62791;-80
2024/04/05 15:19:16;;;;;;;;;;;;;;;;;;107466;1249;62953;-80
2024/04/05 15:21:45;;;;;;;;;;;;;;;;;;107444;1246;63637;-80
2024/04/05 15:24:14;;;;;;;;;;;;;;;;;;107537;1249;62754;-81
2024/04/05 15:26:40;;;;;;;;;;;;;;;;;;107483;1247;63861;-79
2024/04/05 15:29:06;;;;;;;;;;;;;;;;;;107515;1245;62928;-79
2024/04/05 15:31:37;;;;;;;;;;;;;;;;;;107688;1244;62905;-80
2024/04/05 15:34:03;;;;;;;;;;;;;;;;;;107599;1245;63455;-80
2024/04/05 15:36:29;;;;;;;;;;;;;;;;;;107690;1247;62803;-80
2024/04/05 15:38:56;;;;;;;;;;;;;;;;;;107711;1247;63003;-80
2024/04/05 15:41:22;;;;;;;;;;;;;;;;;;107540;1245;62841;-80
2024/04/05 15:43:48;;;;;;;;;;;;;;;;;;107604;1245;62851;-80
2024/04/05 15:46:14;;;;;;;;;;;;;;;;;;107629;1247;62944;-80
2024/04/05 15:48:41;;;;;;;;;;;;;;;;;;107615;1247;63035;-80
2024/04/05 15:51:09;;;;;;;;;;;;;;;;;;107629;1244;62959;-80
2024/04/05 15:53:35;;;;;;;;;;;;;;;;;;107583;1244;62827;-80
2024/04/05 15:56:02;;;;;;;;;;;;;;;;;;107460;1247;63042;-80
2024/04/05 15:58:30;;;;;;;;;;;;;;;;;;107619;1245;62818;-80
2024/04/05 16:00:56;;;;;;;;;;;;;;;;;;107554;1250;62823;-80
2024/04/05 16:03:23;;;;;;;;;;;;;;;;;;107620;1245;62882;-80
2024/04/05 16:05:49;;;;;;;;;;;;;;;;;;107406;1249;62981;-80
2024/04/05 16:08:15;;;;;;;;;;;;;;;;;;107575;1245;62921;-80
2024/04/05 16:10:41;;;;;;;;;;;;;;;;;;107481;1245;63759;-81
2024/04/05 16:13:07;;;;;;;;;;;;;;;;;;107605;1250;62936;-80
2024/04/05 16:15:34;;;;;;;;;;;;;;;;;;107643;1254;62972;-80
2024/04/05 16:18:00;;;;;;;;;;;;;;;;;;107690;1250;62876;-79
2024/04/05 16:20:26;;;;;;;;;;;;;;;;;;107419;1250;62949;-80
2024/04/05 16:22:52;;;;;;;;;;;;;;;;;;107474;1250;63346;-80